Time;durP1;ratioP1;P1;durP2;ratioP2;P2;SDS_P1;SDS_P2;PMS_P1;PMS_P2;Temp;Humidity;BMP_temperature;BMP_pressure;BME280_temperature;BME280_humidity;BME280_pressure;Samples;Min_cycle;Max_cycle;Signal;HPM_P1;HPM_P2
2021/12/17 00:01:00;;;;;;;10.37;6.60;;;5.50;99.90;5.40;102551.00;;;;5041338;27;93256;-70
2021/12/17 00:03:50;;;;;;;14.60;7.07;;;5.60;99.90;5.40;102554.00;;;;5019415;27;93248;-70
2021/12/17 00:08:53;;;;;;;14.10;6.40;;;6.60;99.90;5.40;102560.00;;;;5054687;27;93630;-71
2021/12/17 00:11:20;;;;;;;13.63;7.10;;;5.50;99.90;5.40;102561.00;;;;5022259;27;99653;-69
2021/12/17 00:13:47;;;;;;;16.50;7.73;;;5.50;99.90;5.40;102569.00;;;;5035331;27;103140;-70
2021/12/17 00:16:22;;;;;;;15.87;7.13;;;5.60;99.90;5.40;102573.00;;;;5036708;27;92830;-68
2021/12/17 00:19:17;;;;;;;10.67;5.50;;;5.60;99.90;5.50;102585.00;;;;5018520;27;92971;-68
2021/12/17 00:48:54;;;;;;;16.20;8.00;;;5.60;99.90;5.50;102539.00;;;;5035073;27;92784;-68
2021/12/17 00:54:07;;;;;;;9.63;6.57;;;5.70;99.90;5.50;102543.00;;;;5017050;27;92252;-67
2021/12/17 00:56:32;;;;;;;15.80;8.53;;;5.70;99.90;5.50;102531.00;;;;5040374;27;93830;-68
2021/12/17 00:58:58;;;;;;;13.57;7.40;;;5.60;99.90;5.50;102541.00;;;;5052986;27;111142;-68
2021/12/17 01:01:25;;;;;;;14.17;7.67;;;5.70;99.90;5.50;102541.00;;;;5055064;27;108519;-66
2021/12/17 01:03:52;;;;;;;13.20;8.10;;;5.70;99.90;5.50;102538.00;;;;5054827;27;93977;-68
2021/12/17 01:06:18;;;;;;;16.20;7.87;;;5.70;99.90;5.50;102534.00;;;;5044754;27;92880;-68
2021/12/17 01:08:44;;;;;;;16.00;7.10;;;5.70;99.90;5.60;102544.00;;;;5035022;27;100993;-68
2021/12/17 01:11:10;;;;;;;10.07;5.77;;;5.70;99.90;5.50;102533.00;;;;5036105;27;93013;-68
2021/12/17 01:13:38;;;;;;;9.80;6.73;;;5.70;99.90;5.50;102537.00;;;;5034436;27;94093;-68
2021/12/17 01:16:05;;;;;;;15.43;7.53;;;5.70;99.90;5.60;102537.00;;;;5035845;27;93313;-68
2021/12/17 01:19:03;;;;;;;11.37;6.57;;;5.70;99.90;5.50;102533.00;;;;5035336;27;105089;-68
2021/12/17 01:21:34;;;;;;;13.30;6.70;;;5.80;99.90;5.50;102530.00;;;;5026119;27;93031;-68
2021/12/17 01:24:18;;;;;;;11.60;7.13;;;5.70;99.90;5.50;102538.00;;;;5035857;27;95492;-68
2021/12/17 01:43:05;;;;;;;17.30;6.80;;;5.20;99.90;5.50;102544.00;;;;5053774;27;93092;-69
2021/12/17 01:45:36;;;;;;;10.23;5.70;;;5.70;99.90;5.50;102545.00;;;;5055033;27;93200;-68
2021/12/17 01:48:10;;;;;;;13.93;6.47;;;5.70;99.90;5.60;102542.00;;;;5054343;27;93880;-68
2021/12/17 02:01:18;;;;;;;18.10;6.20;;;5.70;99.90;5.60;102555.00;;;;5051510;27;92905;-67
2021/12/17 02:03:44;;;;;;;17.70;6.40;;;5.70;99.90;5.60;102549.00;;;;5053134;27;110084;-69
2021/12/17 02:06:10;;;;;;;18.10;6.20;;;5.80;99.90;5.60;102563.00;;;;5053336;27;122518;-68
2021/12/17 02:08:36;;;;;;;13.90;6.83;;;5.80;99.90;5.70;102566.00;;;;5052853;27;103376;-68
2021/12/17 02:32:17;;;;;;;7.70;5.40;;;5.80;99.90;5.60;102550.00;;;;5046186;27;92979;-70
2021/12/17 02:37:24;;;;;;;13.37;6.90;;;5.70;99.90;5.50;102557.00;;;;5051982;27;92454;-70
2021/12/17 02:40:08;;;;;;;11.93;5.83;;;5.70;99.90;5.50;102550.00;;;;5053822;27;92675;-69
2021/12/17 02:45:34;;;;;;;15.97;6.60;;;5.80;99.90;5.60;102558.00;;;;5042703;27;93780;-69
2021/12/17 02:48:04;;;;;;;8.07;5.27;;;5.80;99.90;5.60;102552.00;;;;5019930;27;94897;-69
2021/12/17 02:50:32;;;;;;;12.87;5.73;;;5.80;99.90;5.60;102553.00;;;;5053580;27;96500;-70
2021/12/17 02:53:01;;;;;;;15.80;6.00;;;5.70;99.90;5.60;102553.00;;;;5053709;27;92835;-69
2021/12/17 02:55:30;;;;;;;11.97;5.90;;;5.60;99.90;5.60;102556.00;;;;5035521;27;92868;-69
2021/12/17 02:57:56;;;;;;;15.87;5.73;;;5.80;99.90;5.60;102546.00;;;;5053676;27;94425;-69
2021/12/17 03:00:22;;;;;;;12.33;6.47;;;5.70;99.90;5.60;102552.00;;;;5054585;27;93242;-69
2021/12/17 03:02:49;;;;;;;10.17;6.23;;;5.80;99.90;5.60;102552.00;;;;5051083;27;110444;-68
2021/12/17 03:05:15;;;;;;;13.90;6.33;;;5.70;99.90;5.60;102557.00;;;;5034964;27;92998;-70
2021/12/17 03:07:44;;;;;;;12.50;6.03;;;5.80;99.90;5.60;102550.00;;;;5034563;27;93036;-69
2021/12/17 03:10:12;;;;;;;11.83;5.30;;;5.80;99.90;5.60;102544.00;;;;5016511;27;94006;-70
2021/12/17 03:12:47;;;;;;;11.13;5.53;;;5.80;99.90;5.60;102550.00;;;;5032686;27;92781;-68
2021/12/17 03:15:30;;;;;;;9.20;5.77;;;5.80;99.90;5.60;102550.00;;;;5014219;27;93005;-67
2021/12/17 03:23:41;;;;;;;17.30;6.97;;;5.70;99.90;5.60;102548.00;;;;5042384;27;93463;-68
2021/12/17 03:26:24;;;;;;;13.17;6.57;;;5.70;99.90;5.60;102550.00;;;;5057587;27;92820;-68
2021/12/17 03:28:54;;;;;;;8.90;5.00;;;5.40;99.90;5.60;102546.00;;;;5037955;27;96202;-68
2021/12/17 03:31:21;;;;;;;8.83;5.93;;;5.80;99.90;5.60;102544.00;;;;5037068;27;108201;-68
2021/12/17 03:33:50;;;;;;;16.47;5.60;;;5.70;99.90;5.60;102554.00;;;;5032167;27;94402;-68
2021/12/17 03:36:18;;;;;;;11.23;5.63;;;5.80;99.90;5.60;102559.00;;;;5037895;27;93978;-67
2021/12/17 03:38:47;;;;;;;7.77;6.10;;;5.80;99.90;5.60;102554.00;;;;5056192;27;105808;-68
2021/12/17 03:41:23;;;;;;;11.40;6.57;;;5.80;99.90;5.60;102554.00;;;;5049720;27;93101;-67
2021/12/17 03:43:51;;;;;;;11.77;5.67;;;5.80;99.90;5.60;102549.00;;;;5037251;27;93020;-66
2021/12/17 03:46:18;;;;;;;10.03;4.70;;;5.80;99.90;5.60;102553.00;;;;5036760;27;92766;-67
2021/12/17 03:48:44;;;;;;;11.43;5.40;;;5.70;99.90;5.60;102546.00;;;;5017309;27;93106;-68
2021/12/17 03:51:14;;;;;;;10.63;4.97;;;5.60;99.90;5.60;102548.00;;;;5017624;27;95276;-67
2021/12/17 03:53:58;;;;;;;10.90;5.20;;;5.70;99.90;5.60;102544.00;;;;5037149;27;92067;-69
2021/12/17 03:56:25;;;;;;;7.90;5.23;;;5.70;99.90;5.50;102539.00;;;;5018177;27;92970;-68
2021/12/17 03:58:53;;;;;;;8.37;5.03;;;5.70;99.90;5.60;102536.00;;;;5036413;27;93423;-68
2021/12/17 04:01:21;;;;;;;8.70;4.20;;;5.70;99.90;5.50;102540.00;;;;5035496;27;94097;-67
2021/12/17 04:03:46;;;;;;;9.37;4.33;;;5.70;99.90;5.50;102539.00;;;;5012235;27;92937;-68
2021/12/17 04:06:13;;;;;;;13.37;4.83;;;5.70;99.90;5.50;102546.00;;;;5036348;27;107052;-66
2021/12/17 04:08:39;;;;;;;9.63;4.90;;;5.70;99.90;5.50;102529.00;;;;5053408;27;98094;-69
2021/12/17 04:11:06;;;;;;;7.30;3.97;;;5.60;99.90;5.50;102532.00;;;;5036689;27;93029;-68
2021/12/17 04:13:37;;;;;;;11.10;4.57;;;5.70;99.90;5.50;102533.00;;;;5036382;27;92927;-68
2021/12/17 04:16:10;;;;;;;5.20;4.17;;;5.70;99.90;5.50;102530.00;;;;5050974;27;93174;-68
2021/12/17 04:18:40;;;;;;;10.20;4.67;;;5.70;99.90;5.50;102525.00;;;;5044448;27;93407;-67
2021/12/17 04:21:13;;;;;;;10.17;4.33;;;5.70;99.90;5.50;102522.00;;;;5016611;27;93130;-67
2021/12/17 04:23:41;;;;;;;8.73;4.20;;;5.60;99.90;5.40;102520.00;;;;5035911;27;92779;-67
2021/12/17 04:26:07;;;;;;;12.00;4.37;;;5.70;99.90;5.40;102528.00;;;;5035976;27;94007;-67
2021/12/17 04:28:36;;;;;;;14.00;4.97;;;5.60;99.90;5.40;102528.00;;;;5035841;27;93439;-67
2021/12/17 04:31:01;;;;;;;11.37;4.30;;;5.70;99.90;5.40;102533.00;;;;5035000;27;93710;-68
2021/12/17 04:33:27;;;;;;;8.43;3.90;;;5.60;99.90;5.40;102533.00;;;;5035080;27;102078;-67
2021/12/17 04:35:53;;;;;;;6.13;4.03;;;5.60;99.90;5.40;102538.00;;;;5035009;27;110022;-67
2021/12/17 04:38:21;;;;;;;6.10;3.97;;;5.60;99.90;5.40;102547.00;;;;5052741;27;93048;-66
2021/12/17 04:40:48;;;;;;;10.03;4.23;;;5.60;99.90;5.40;102536.00;;;;5053107;27;92855;-66
2021/12/17 04:43:29;;;;;;;5.83;3.07;;;6.30;99.90;5.50;102530.00;;;;5036240;27;92101;-68
2021/12/17 04:46:13;;;;;;;5.50;3.67;;;5.60;99.90;5.50;102545.00;;;;5036266;27;92618;-67
2021/12/17 04:59:35;;;;;;;6.97;3.90;;;5.70;99.90;5.50;102543.00;;;;5052812;27;92594;-68
2021/12/17 05:02:02;;;;;;;5.17;3.27;;;5.60;99.90;5.50;102539.00;;;;5054176;27;118917;-68
2021/12/17 05:04:28;;;;;;;5.13;3.83;;;5.70;99.90;5.50;102539.00;;;;5054276;27;92699;-68
2021/12/17 05:06:54;;;;;;;6.00;3.83;;;5.70;99.90;5.50;102553.00;;;;5035298;27;92934;-68
2021/12/17 05:09:32;;;;;;;7.73;4.40;;;5.60;99.90;5.50;102554.00;;;;5034796;27;109030;-66
2021/12/17 05:22:58;;;;;;;9.70;4.63;;;5.60;99.90;5.40;102536.00;;;;5053473;27;92789;-67
2021/12/17 05:25:29;;;;;;;8.77;4.47;;;5.60;99.90;5.40;102533.00;;;;5055200;27;93236;-68
2021/12/17 05:28:00;;;;;;;12.83;4.40;;;5.50;99.90;5.30;102529.00;;;;5055406;27;92876;-69
2021/12/17 05:30:31;;;;;;;11.17;4.37;;;5.50;99.90;5.30;102536.00;;;;5035763;27;94279;-68
2021/12/17 05:32:57;;;;;;;10.17;4.63;;;5.50;99.90;5.30;102538.00;;;;5030225;27;92914;-69
2021/12/17 05:35:24;;;;;;;12.70;4.90;;;5.50;99.90;5.30;102550.00;;;;5035078;27;93100;-69
2021/12/17 05:37:50;;;;;;;8.10;4.30;;;5.50;99.90;5.30;102547.00;;;;5049293;27;92966;-68
2021/12/17 05:40:16;;;;;;;10.63;5.00;;;5.50;99.90;5.30;102535.00;;;;5054905;27;93394;-69
2021/12/17 05:42:42;;;;;;;15.13;6.33;;;5.40;99.90;5.20;102547.00;;;;5033768;27;122271;-67
2021/12/17 05:47:54;;;;;;;9.97;4.77;;;5.50;99.90;5.20;102552.00;;;;5036657;27;93151;-68
2021/12/17 05:50:20;;;;;;;13.20;4.07;;;5.40;99.90;5.30;102547.00;;;;5022140;27;123864;-70
2021/12/17 05:52:45;;;;;;;11.90;3.43;;;5.40;99.90;5.30;102547.00;;;;5033174;27;122359;-68
2021/12/17 05:55:11;;;;;;;10.50;5.20;;;5.40;99.90;5.20;102534.00;;;;5033955;27;110420;-69
2021/12/17 05:57:37;;;;;;;11.23;5.00;;;5.40;99.90;5.20;102534.00;;;;5054089;27;92973;-69
2021/12/17 06:00:05;;;;;;;9.80;5.50;;;5.40;99.90;5.20;102519.00;;;;5053796;27;120567;-69
2021/12/17 06:02:30;;;;;;;9.47;5.07;;;5.40;99.90;5.20;102527.00;;;;5035672;27;92878;-68
2021/12/17 06:04:56;;;;;;;11.40;4.20;;;5.40;99.90;5.20;102525.00;;;;5034003;27;109868;-68
2021/12/17 06:07:29;;;;;;;10.63;5.00;;;5.40;99.90;5.20;102530.00;;;;5035545;27;93776;-69
2021/12/17 06:09:59;;;;;;;8.47;4.83;;;5.40;99.90;5.20;102535.00;;;;5015284;27;93163;-70
2021/12/17 06:12:25;;;;;;;11.77;5.40;;;4.90;99.90;5.20;102526.00;;;;5034464;27;92793;-69
2021/12/17 06:14:50;;;;;;;7.27;4.47;;;5.30;99.90;5.20;102532.00;;;;5034549;27;92813;-69
2021/12/17 06:17:16;;;;;;;9.73;5.63;;;5.40;99.90;5.20;102528.00;;;;5033382;27;109332;-69
2021/12/17 06:19:42;;;;;;;7.83;4.40;;;5.30;99.90;5.20;102536.00;;;;5033325;27;123474;-69
2021/12/17 06:22:08;;;;;;;15.17;4.83;;;5.30;99.90;5.20;102525.00;;;;5038623;27;94112;-69
2021/12/17 06:24:33;;;;;;;11.27;4.57;;;5.40;99.90;5.20;102533.00;;;;5054793;27;93739;-68
2021/12/17 06:26:59;;;;;;;6.20;3.47;;;5.40;99.90;5.20;102535.00;;;;5052649;27;107909;-68
2021/12/17 06:29:25;;;;;;;14.47;4.83;;;5.40;99.90;5.20;102521.00;;;;5053413;27;121545;-68
2021/12/17 06:31:50;;;;;;;7.80;4.20;;;5.40;99.90;5.20;102532.00;;;;5044417;27;122523;-70
2021/12/17 06:34:16;;;;;;;6.23;4.00;;;5.40;99.90;5.20;102521.00;;;;5032251;27;111102;-69
2021/12/17 06:36:42;;;;;;;6.07;4.13;;;5.40;99.90;5.20;102517.00;;;;5048702;27;93064;-68
2021/12/17 06:39:07;;;;;;;6.23;3.10;;;5.40;99.90;5.30;102519.00;;;;5052124;27;123097;-69
2021/12/17 06:41:34;;;;;;;10.80;4.23;;;5.40;99.90;5.30;102508.00;;;;5043898;27;122283;-70
2021/12/17 06:44:00;;;;;;;11.27;4.17;;;5.40;99.90;5.30;102520.00;;;;5033478;27;92618;-69
2021/12/17 06:46:46;;;;;;;7.63;4.40;;;5.40;99.90;5.20;102514.00;;;;5034480;27;92878;-69
2021/12/17 06:49:26;;;;;;;9.17;4.67;;;5.40;99.90;5.30;102520.00;;;;5046861;27;93068;-69
2021/12/17 07:00:16;;;;;;;9.13;4.30;;;5.30;99.90;5.20;102518.00;;;;5051856;27;93194;-70
2021/12/17 07:10:46;;;;;;;5.07;3.73;;;5.40;99.90;5.20;102537.00;;;;5034199;27;92883;-67
2021/12/17 07:20:02;;;;;;;10.80;2.80;;;5.40;99.90;5.20;102539.00;;;;5031441;27;92970;-68
2021/12/17 07:21:56;;;;;;;6.27;3.50;;;5.40;99.90;5.30;102538.00;;;;5029467;27;92868;-67
2021/12/17 07:40:34;;;;;;;8.63;5.10;;;5.50;99.90;5.30;102579.00;;;;5030342;27;92752;-67
2021/12/17 07:43:04;;;;;;;12.33;3.63;;;5.50;99.90;5.30;102572.00;;;;5029136;27;121752;-67
2021/12/17 07:45:30;;;;;;;12.10;3.50;;;5.50;99.90;5.30;102564.00;;;;5044540;27;93088;-68
2021/12/17 07:47:55;;;;;;;7.67;4.27;;;5.50;99.90;5.30;102566.00;;;;5034102;27;111290;-68
2021/12/17 07:50:21;;;;;;;7.13;3.13;;;5.50;99.90;5.30;102564.00;;;;5029038;27;94943;-69
2021/12/17 07:52:47;;;;;;;7.73;3.67;;;5.50;99.90;5.30;102578.00;;;;5028718;27;122150;-69
2021/12/17 07:55:12;;;;;;;8.00;4.00;;;5.50;99.90;5.30;102585.00;;;;5025722;27;122003;-69
2021/12/17 07:57:38;;;;;;;10.77;4.93;;;5.50;99.90;5.30;102568.00;;;;5030079;27;110542;-68
2021/12/17 08:00:06;;;;;;;9.80;2.97;;;5.40;99.90;5.30;102569.00;;;;5029057;27;107746;-67
2021/12/17 08:02:32;;;;;;;8.37;4.00;;;5.50;99.90;5.30;102573.00;;;;5026959;27;106938;-67
2021/12/17 08:04:58;;;;;;;10.57;3.33;;;5.40;99.90;5.30;102574.00;;;;5028843;27;122770;-67
2021/12/17 08:07:23;;;;;;;9.73;4.53;;;5.40;99.90;5.30;102575.00;;;;5030554;27;110879;-68
2021/12/17 08:09:49;;;;;;;13.10;4.73;;;5.40;99.90;5.30;102575.00;;;;5034531;27;108797;-68
2021/12/17 08:12:17;;;;;;;9.83;3.97;;;5.50;99.90;5.30;102571.00;;;;5039732;27;95040;-67
2021/12/17 08:14:43;;;;;;;8.73;4.63;;;5.50;99.90;5.30;102551.00;;;;5038568;27;94083;-67
2021/12/17 08:17:40;;;;;;;8.40;4.23;;;5.40;99.90;5.30;102557.00;;;;5033939;27;92881;-68
2021/12/17 08:28:24;;;;;;;11.13;4.53;;;5.50;99.90;5.30;102573.00;;;;4948039;28;92958;-67
2021/12/17 08:30:50;;;;;;;14.17;5.20;;;5.50;99.90;5.40;102577.00;;;;4990441;27;93001;-67
2021/12/17 08:33:20;;;;;;;14.73;6.17;;;5.60;99.90;5.40;102582.00;;;;5013735;27;94060;-68
2021/12/17 08:35:46;;;;;;;9.83;5.20;;;5.50;99.90;5.40;102574.00;;;;5035109;27;93237;-67
2021/12/17 08:38:12;;;;;;;11.53;5.20;;;5.60;99.90;5.40;102568.00;;;;5037828;27;96302;-67
2021/12/17 08:40:38;;;;;;;9.13;5.03;;;5.60;99.90;5.40;102583.00;;;;5032412;27;93762;-68
2021/12/17 08:43:04;;;;;;;10.33;5.23;;;5.60;99.90;5.40;102594.00;;;;5034126;27;94554;-68
2021/12/17 08:45:31;;;;;;;8.43;4.87;;;5.60;99.90;5.40;102601.00;;;;5032625;27;93600;-67
2021/12/17 08:47:57;;;;;;;9.00;5.00;;;5.60;99.90;5.40;102592.00;;;;5032156;27;93100;-68
2021/12/17 08:50:23;;;;;;;9.53;4.37;;;5.60;99.90;5.40;102603.00;;;;5032855;27;93162;-67
2021/12/17 08:52:49;;;;;;;9.70;5.17;;;5.60;99.90;5.50;102586.00;;;;5031755;27;123130;-68
2021/12/17 08:55:16;;;;;;;13.67;6.13;;;5.60;99.90;5.50;102590.00;;;;5031764;27;123036;-68
2021/12/17 08:57:42;;;;;;;10.30;5.53;;;5.60;99.90;5.50;102581.00;;;;5031680;27;110725;-67
2021/12/17 09:00:11;;;;;;;12.37;6.00;;;5.60;99.90;5.50;102597.00;;;;5013993;27;93625;-67
2021/12/17 09:02:38;;;;;;;10.27;5.83;;;5.70;99.90;5.50;102590.00;;;;5030066;27;110435;-67
2021/12/17 09:05:05;;;;;;;14.33;5.20;;;5.70;99.90;5.50;102601.00;;;;5031896;27;93916;-66
2021/12/17 09:07:31;;;;;;;12.87;5.37;;;5.70;99.90;5.50;102600.00;;;;5032117;27;92859;-67
2021/12/17 09:09:57;;;;;;;13.67;5.30;;;5.70;99.90;5.50;102606.00;;;;5034299;27;93101;-67
2021/12/17 09:12:23;;;;;;;12.17;6.27;;;5.70;99.90;5.60;102608.00;;;;5048698;27;94122;-67
2021/12/17 09:14:49;;;;;;;13.83;5.57;;;5.70;99.90;5.60;102614.00;;;;5053084;27;92932;-66
2021/12/17 09:17:15;;;;;;;15.00;5.77;;;5.70;99.90;5.60;102613.00;;;;5035488;27;93441;-66
2021/12/17 09:19:41;;;;;;;11.00;4.93;;;6.30;99.90;5.60;102608.00;;;;5043708;27;92889;-67
2021/12/17 09:22:06;;;;;;;7.57;4.63;;;5.70;99.90;5.60;102599.00;;;;5052370;27;94478;-67
2021/12/17 09:24:32;;;;;;;10.73;5.77;;;5.70;99.90;5.60;102604.00;;;;5040710;27;121349;-67
2021/12/17 09:26:59;;;;;;;16.03;5.77;;;5.70;99.90;5.60;102609.00;;;;5031676;27;99517;-67
2021/12/17 09:29:25;;;;;;;12.50;6.33;;;5.80;99.90;5.60;102602.00;;;;5032054;27;94158;-67
2021/12/17 09:31:50;;;;;;;10.10;5.63;;;5.80;99.90;5.60;102602.00;;;;5031348;27;94212;-67
2021/12/17 09:34:16;;;;;;;15.53;6.43;;;5.70;99.90;5.60;102599.00;;;;5030624;27;122115;-69
2021/12/17 09:36:42;;;;;;;9.77;5.50;;;5.80;99.90;5.60;102600.00;;;;5032194;27;106898;-67
2021/12/17 09:39:08;;;;;;;12.33;4.93;;;5.80;99.90;5.60;102592.00;;;;5014745;27;93198;-67
2021/12/17 09:41:33;;;;;;;8.23;5.23;;;5.80;99.90;5.60;102602.00;;;;5036307;27;122782;-67
2021/12/17 09:43:59;;;;;;;10.97;5.00;;;5.80;99.90;5.60;102598.00;;;;5035820;27;115918;-67
2021/12/17 09:46:25;;;;;;;9.87;5.53;;;5.80;99.90;5.60;102588.00;;;;5052308;27;91988;-67
2021/12/17 09:48:51;;;;;;;8.33;4.50;;;5.80;99.90;5.60;102577.00;;;;5032474;27;103319;-70
2021/12/17 09:51:19;;;;;;;12.10;5.03;;;5.80;99.90;5.60;102585.00;;;;5015277;27;95456;-69
2021/12/17 09:53:46;;;;;;;14.50;6.03;;;5.90;99.90;5.60;102576.00;;;;5033770;27;94222;-67
2021/12/17 09:56:12;;;;;;;13.17;4.33;;;5.80;99.90;5.60;102585.00;;;;5031939;27;93221;-66
2021/12/17 09:58:37;;;;;;;11.00;6.23;;;5.80;99.90;5.60;102572.00;;;;5030771;27;108069;-67
2021/12/17 10:01:04;;;;;;;16.80;5.23;;;5.80;99.90;5.70;102574.00;;;;5029860;27;122861;-69
2021/12/17 10:03:30;;;;;;;12.37;5.60;;;5.90;99.90;5.70;102574.00;;;;5030253;27;122126;-67
2021/12/17 10:05:56;;;;;;;8.27;4.53;;;5.80;99.90;5.70;102581.00;;;;5030208;27;111263;-68
2021/12/17 10:08:24;;;;;;;13.17;5.30;;;5.90;99.90;5.70;102586.00;;;;5031495;27;93043;-67
2021/12/17 10:11:00;;;;;;;12.47;6.17;;;5.80;99.90;5.70;102598.00;;;;5032307;27;104603;-68
2021/12/17 10:13:32;;;;;;;9.50;4.87;;;5.80;99.90;5.70;102593.00;;;;5002160;27;93312;-67
2021/12/17 10:16:06;;;;;;;10.10;5.67;;;5.80;99.90;5.70;102605.00;;;;5040444;27;92848;-67
2021/12/17 10:18:35;;;;;;;12.13;5.53;;;5.80;99.90;5.70;102604.00;;;;5008202;27;96923;-68
2021/12/17 10:21:05;;;;;;;7.83;5.30;;;5.90;99.90;5.70;102595.00;;;;5031313;27;93210;-67
2021/12/17 10:23:32;;;;;;;11.67;4.87;;;6.30;99.90;5.70;102589.00;;;;5031173;27;93144;-67
2021/12/17 10:25:59;;;;;;;6.50;4.07;;;5.90;99.90;5.80;102596.00;;;;5030652;27;92867;-68
2021/12/17 10:28:26;;;;;;;10.90;5.60;;;5.90;99.90;5.80;102605.00;;;;5030695;27;93177;-69
2021/12/17 10:30:55;;;;;;;6.83;4.80;;;6.00;99.90;5.80;102609.00;;;;5028868;27;94069;-70
2021/12/17 10:33:25;;;;;;;9.17;4.73;;;5.90;99.90;5.80;102597.00;;;;5036477;27;93950;-70
2021/12/17 10:35:54;;;;;;;9.57;4.33;;;6.00;99.90;5.80;102601.00;;;;5031395;27;92309;-70
2021/12/17 10:38:25;;;;;;;7.73;4.37;;;5.80;99.90;5.80;102587.00;;;;5030790;27;92817;-68
2021/12/17 10:41:15;;;;;;;7.17;4.03;;;6.00;99.90;5.80;102599.00;;;;5015914;27;93478;-67
2021/12/17 10:43:50;;;;;;;7.87;4.33;;;6.00;99.90;5.90;102612.00;;;;5014704;27;94108;-68
2021/12/17 10:46:26;;;;;;;8.50;4.50;;;6.00;99.90;5.90;102603.00;;;;5030594;27;92845;-67
2021/12/17 10:54:11;;;;;;;11.07;5.23;;;6.10;99.90;5.90;102613.00;;;;5011544;27;93285;-68
2021/12/17 10:56:45;;;;;;;12.53;5.40;;;6.10;99.90;5.90;102610.00;;;;5031356;27;92915;-67
2021/12/17 10:59:21;;;;;;;8.17;4.30;;;6.70;99.90;5.90;102618.00;;;;5012040;27;93238;-69
2021/12/17 11:01:55;;;;;;;8.57;4.97;;;6.10;99.90;6.00;102616.00;;;;5036446;27;93260;-69
2021/12/17 11:04:30;;;;;;;9.43;5.27;;;6.10;99.90;6.00;102623.00;;;;5030073;27;92752;-69
2021/12/17 11:07:03;;;;;;;7.33;4.77;;;6.10;99.90;6.00;102600.00;;;;5015994;27;93304;-69
2021/12/17 11:09:46;;;;;;;10.57;4.07;;;6.10;99.90;6.00;102608.00;;;;5011534;27;93905;-68
2021/12/17 11:12:17;;;;;;;8.93;4.87;;;6.20;99.90;6.00;102607.00;;;;5011080;27;95585;-69
2021/12/17 11:14:46;;;;;;;8.53;3.53;;;6.20;99.90;6.00;102597.00;;;;5031269;27;93214;-69
2021/12/17 11:17:14;;;;;;;7.73;4.93;;;6.20;99.90;6.00;102596.00;;;;5030431;27;93332;-69
2021/12/17 11:19:42;;;;;;;8.17;4.43;;;6.20;99.90;6.00;102602.00;;;;5031112;27;93017;-69
2021/12/17 11:22:08;;;;;;;9.23;4.40;;;6.20;99.90;6.00;102598.00;;;;5010553;27;93004;-70
2021/12/17 11:24:36;;;;;;;11.23;4.60;;;6.30;99.90;6.00;102593.00;;;;5032406;27;108509;-69
2021/12/17 11:27:06;;;;;;;10.00;5.43;;;6.20;99.90;6.10;102589.00;;;;5030446;27;92024;-69
2021/12/17 11:29:33;;;;;;;7.40;4.40;;;6.20;99.90;6.10;102589.00;;;;5018522;27;92837;-69
2021/12/17 11:32:02;;;;;;;12.43;5.10;;;6.20;99.90;6.10;102582.00;;;;5036641;27;105632;-69
2021/12/17 11:34:30;;;;;;;12.13;3.67;;;6.20;99.90;6.10;102586.00;;;;5029669;27;108290;-69
2021/12/17 11:37:00;;;;;;;13.40;4.63;;;6.20;99.90;6.10;102580.00;;;;5049967;27;92844;-69
2021/12/17 11:39:26;;;;;;;8.73;4.60;;;6.20;99.90;6.10;102584.00;;;;5012885;27;93041;-69
2021/12/17 11:42:33;;;;;;;6.30;3.83;;;6.30;99.90;6.10;102584.00;;;;5040573;27;102006;-69
2021/12/17 11:47:49;;;;;;;11.50;3.73;;;6.30;99.90;6.10;102601.00;;;;5036270;27;92930;-69
2021/12/17 11:50:18;;;;;;;6.20;4.40;;;6.30;99.90;6.10;102593.00;;;;5033041;27;93048;-69
2021/12/17 11:52:46;;;;;;;10.40;3.70;;;6.30;99.90;6.10;102595.00;;;;5032945;27;109039;-69
2021/12/17 11:55:23;;;;;;;12.53;4.10;;;6.30;99.90;6.20;102581.00;;;;5034330;27;92901;-69
2021/12/17 11:57:59;;;;;;;5.53;4.10;;;6.30;99.90;6.20;102582.00;;;;5038196;27;93001;-69
2021/12/17 12:00:48;;;;;;;5.40;3.70;;;6.30;99.90;6.20;102579.00;;;;5037215;27;93710;-69
2021/12/17 12:03:21;;;;;;;11.17;4.97;;;6.30;99.90;6.20;102589.00;;;;5013807;27;93124;-68
2021/12/17 12:05:50;;;;;;;7.23;3.07;;;6.40;99.90;6.20;102595.00;;;;5033212;27;94552;-68
2021/12/17 12:08:51;;;;;;;7.77;3.67;;;6.40;99.90;6.20;102578.00;;;;5032330;27;96025;-68
2021/12/17 12:11:30;;;;;;;8.60;4.23;;;6.40;99.90;6.20;102593.00;;;;5022382;27;92902;-69
2021/12/17 12:13:56;;;;;;;9.37;4.60;;;6.30;99.90;6.20;102571.00;;;;5031973;27;123241;-67
2021/12/17 12:16:28;;;;;;;6.60;3.43;;;6.40;99.90;6.20;102593.00;;;;5031863;27;122357;-70
2021/12/17 12:19:08;;;;;;;7.63;4.23;;;6.40;99.90;6.20;102581.00;;;;5033243;27;92356;-67
2021/12/17 12:21:38;;;;;;;8.50;4.10;;;6.30;99.90;6.20;102574.00;;;;5033721;27;92831;-67
2021/12/17 12:24:11;;;;;;;7.53;3.97;;;6.40;99.90;6.20;102574.00;;;;5029667;27;92830;-68
2021/12/17 12:26:49;;;;;;;8.43;3.90;;;6.40;99.90;6.20;102577.00;;;;5036683;27;97420;-67
2021/12/17 12:29:24;;;;;;;5.20;3.37;;;6.40;99.90;6.20;102577.00;;;;5028317;27;92940;-67
2021/12/17 12:32:00;;;;;;;5.33;3.43;;;6.40;99.90;6.20;102578.00;;;;5033379;27;92822;-68
2021/12/17 12:34:37;;;;;;;9.73;4.00;;;6.30;99.90;6.20;102568.00;;;;5043142;27;93099;-68
2021/12/17 12:37:26;;;;;;;13.07;4.17;;;6.40;99.90;6.10;102568.00;;;;5029498;27;93115;-68
2021/12/17 12:39:56;;;;;;;8.70;3.60;;;6.40;99.90;6.20;102566.00;;;;5052538;27;94139;-68
2021/12/17 12:42:30;;;;;;;5.83;3.30;;;6.30;99.90;6.20;102571.00;;;;5044837;27;92902;-68
2021/12/17 12:44:55;;;;;;;6.90;4.40;;;6.30;99.90;6.20;102569.00;;;;5039387;27;92599;-68
2021/12/17 12:47:23;;;;;;;9.37;4.63;;;6.40;99.90;6.20;102572.00;;;;5039537;27;92869;-69
2021/12/17 12:49:52;;;;;;;11.13;4.70;;;6.30;99.90;6.20;102564.00;;;;5032385;27;93087;-68
2021/12/17 12:52:31;;;;;;;7.10;3.90;;;6.30;99.90;6.20;102570.00;;;;5031817;27;94349;-70
2021/12/17 12:55:27;;;;;;;8.67;4.07;;;6.40;99.90;6.20;102551.00;;;;5038895;27;93164;-70
2021/12/17 12:58:12;;;;;;;7.53;4.37;;;6.40;99.90;6.20;102556.00;;;;5023623;27;93161;-69
2021/12/17 13:00:58;;;;;;;8.50;3.73;;;6.40;99.90;6.20;102548.00;;;;5032613;27;92894;-68
2021/12/17 13:03:31;;;;;;;9.67;4.27;;;6.40;99.90;6.20;102548.00;;;;5013359;27;93043;-68
2021/12/17 13:06:00;;;;;;;14.97;4.97;;;6.40;99.90;6.20;102549.00;;;;5046901;27;108170;-67
2021/12/17 13:08:30;;;;;;;7.30;4.07;;;6.40;99.90;6.20;102550.00;;;;5012934;27;93002;-70
2021/12/17 13:11:02;;;;;;;6.97;4.10;;;6.40;99.90;6.20;102550.00;;;;5039750;27;91900;-68
2021/12/17 13:13:35;;;;;;;9.43;4.07;;;6.40;99.90;6.20;102544.00;;;;5012705;27;93003;-68
2021/12/17 13:16:34;;;;;;;9.10;4.70;;;6.40;99.90;6.30;102541.00;;;;5032334;27;93362;-69
2021/12/17 13:22:00;;;;;;;8.13;4.33;;;6.40;99.90;6.30;102548.00;;;;5012686;27;93022;-70
2021/12/17 13:24:30;;;;;;;7.77;3.50;;;6.50;99.90;6.30;102550.00;;;;5029211;27;92792;-67
2021/12/17 13:27:01;;;;;;;7.90;4.13;;;6.40;99.90;6.30;102558.00;;;;5029622;27;93072;-68
2021/12/17 13:29:33;;;;;;;5.87;3.63;;;6.50;99.90;6.30;102564.00;;;;5031459;27;93862;-69
2021/12/17 13:32:06;;;;;;;10.53;5.73;;;6.40;99.90;6.30;102580.00;;;;5037023;27;92884;-68
2021/12/17 13:34:42;;;;;;;8.10;4.53;;;6.40;99.90;6.30;102564.00;;;;5033702;27;93005;-67
2021/12/17 13:37:21;;;;;;;7.77;4.53;;;6.50;99.90;6.30;102563.00;;;;5043979;27;92364;-67
2021/12/17 13:40:15;;;;;;;9.80;4.93;;;6.50;99.90;6.30;102547.00;;;;5052045;27;93053;-68
2021/12/17 13:42:46;;;;;;;8.83;4.63;;;6.50;99.90;6.40;102568.00;;;;5032268;27;92993;-68
2021/12/17 13:45:14;;;;;;;11.07;4.00;;;6.50;99.90;6.40;102564.00;;;;5010394;27;93957;-68
2021/12/17 13:47:53;;;;;;;13.57;5.30;;;6.60;99.90;6.40;102575.00;;;;5031731;27;93393;-68
2021/12/17 13:50:32;;;;;;;12.83;5.00;;;6.50;99.90;6.40;102579.00;;;;5012370;27;92830;-68
2021/12/17 13:53:19;;;;;;;7.30;4.00;;;6.60;99.90;6.40;102576.00;;;;5036868;27;92750;-68
2021/12/17 13:55:48;;;;;;;8.23;4.20;;;6.60;99.90;6.40;102563.00;;;;5017647;27;108832;-68
2021/12/17 13:58:20;;;;;;;9.47;5.03;;;6.60;99.90;6.40;102573.00;;;;5042885;27;94484;-69
2021/12/17 14:00:53;;;;;;;12.73;4.10;;;6.60;99.90;6.40;102566.00;;;;5028334;27;93069;-67
2021/12/17 14:03:23;;;;;;;7.60;3.87;;;6.50;99.90;6.40;102578.00;;;;5031773;27;92128;-68
2021/12/17 14:05:56;;;;;;;8.47;3.90;;;6.60;99.90;6.40;102576.00;;;;5011972;27;92980;-68